Terminal Aerodrome Forecast
Issued by NWS

Home | Current Version | Previous Version | Graphics & Text | Print | Product List | Glossary On
Versions: 1 2 3 4 5 6 7 8 9 10 11 12 13 14 15 16
000
FTUS43 KBIS 301200 AAA
TAFDIK
TAF AMD
KDIK 301206Z 3012/3112 10005KT 3SM BR SCT002
      TEMPO 3012/3014 1/4SM FG BKN002
     FM301400 10006KT P6SM FEW060
     FM301800 02005KT P6SM SCT060
     FM310200 14004KT P6SM SCT090=

USA.gov is the U.S. government's official web portal to all federal, state and local government web resources and services.